createdAt,value
2022-10-04T00:02:29.300Z,6.70
2022-10-04T00:05:34.243Z,6.27
2022-10-04T00:08:45.833Z,7.70
2022-10-04T00:11:49.350Z,9.50
2022-10-04T00:14:53.977Z,11.40
2022-10-04T00:18:09.356Z,6.83
2022-10-04T00:21:13.562Z,6.83
2022-10-04T00:24:23.097Z,10.77
2022-10-04T00:27:28.192Z,13.10
2022-10-04T00:30:38.563Z,6.97
2022-10-04T00:33:42.910Z,10.57
2022-10-04T00:36:57.510Z,12.47
2022-10-04T00:40:11.143Z,10.47
2022-10-04T00:43:19.337Z,8.30
2022-10-04T00:46:24.831Z,11.43
2022-10-04T00:49:34.743Z,8.27
2022-10-04T00:52:46.279Z,6.37
2022-10-04T00:55:52.588Z,9.00
2022-10-04T00:59:23.003Z,4.80
2022-10-04T01:02:32.849Z,4.93
2022-10-04T01:05:39.309Z,5.93
2022-10-04T01:08:49.114Z,7.90
2022-10-04T01:12:01.564Z,5.00
2022-10-04T01:15:08.627Z,4.70
2022-10-04T01:18:15.419Z,5.17
2022-10-04T01:21:28.246Z,4.50
2022-10-04T01:24:37.702Z,5.27
2022-10-04T01:27:43.929Z,12.20
2022-10-04T01:30:47.431Z,5.33
2022-10-04T01:33:50.226Z,7.20
2022-10-04T01:36:55.399Z,5.17
2022-10-04T01:40:00.129Z,6.20
2022-10-04T01:43:07.791Z,5.27
2022-10-04T01:46:14.432Z,4.93
2022-10-04T01:49:21.634Z,5.00
2022-10-04T01:52:31.235Z,3.87
2022-10-04T01:55:38.441Z,7.67
2022-10-04T01:58:46.214Z,9.83
2022-10-04T02:01:54.860Z,5.27
2022-10-04T02:05:00.652Z,4.80
2022-10-04T02:08:06.304Z,4.77
2022-10-04T02:11:11.849Z,5.23
2022-10-04T02:14:17.803Z,3.87
2022-10-04T02:17:23.896Z,8.47
2022-10-04T02:20:28.385Z,5.13
2022-10-04T02:23:32.489Z,8.47
2022-10-04T02:26:36.608Z,9.90
2022-10-04T02:29:39.415Z,6.83
2022-10-04T02:32:59.717Z,6.23
2022-10-04T02:36:03.044Z,5.03
2022-10-04T02:39:11.475Z,6.80
2022-10-04T02:42:20.435Z,11.53
2022-10-04T02:45:29.537Z,3.47
2022-10-04T02:48:39.572Z,5.47
2022-10-04T02:51:48.551Z,4.90
2022-10-04T02:55:01.027Z,9.90
2022-10-04T02:58:11.133Z,4.20
2022-10-04T03:01:26.402Z,8.13
2022-10-04T03:04:31.895Z,5.77
2022-10-04T03:07:36.827Z,5.80
2022-10-04T03:10:43.190Z,5.50
2022-10-04T03:13:50.317Z,9.13
2022-10-04T03:16:55.650Z,10.80
2022-10-04T03:19:59.212Z,5.27
2022-10-04T03:23:05.211Z,9.60
2022-10-04T03:26:21.456Z,3.40
2022-10-04T03:29:28.608Z,6.97
2022-10-04T03:32:32.745Z,8.60
2022-10-04T03:35:39.046Z,5.47
2022-10-04T03:38:41.845Z,8.90
2022-10-04T03:41:44.921Z,5.87
2022-10-04T03:44:51.776Z,6.43
2022-10-04T03:47:59.804Z,5.63
2022-10-04T03:51:05.548Z,5.40
2022-10-04T03:54:12.335Z,4.63
2022-10-04T03:57:15.210Z,6.07
2022-10-04T04:00:20.090Z,11.60
2022-10-04T04:03:23.995Z,4.90
2022-10-04T04:06:30.578Z,5.70
2022-10-04T04:09:42.877Z,7.27
2022-10-04T04:12:52.932Z,5.60
2022-10-04T04:15:58.366Z,7.20
2022-10-04T04:19:04.839Z,3.87
2022-10-04T04:22:08.151Z,4.60
2022-10-04T04:25:17.552Z,5.90
2022-10-04T04:28:27.706Z,3.43
2022-10-04T04:31:37.555Z,6.00
2022-10-04T04:34:52.838Z,5.20
2022-10-04T04:38:15.037Z,4.93
2022-10-04T04:41:17.804Z,4.07
2022-10-04T04:44:20.898Z,6.37
2022-10-04T04:47:33.816Z,11.00
2022-10-04T04:50:41.075Z,6.30
2022-10-04T04:53:44.333Z,4.47
2022-10-04T04:56:50.132Z,6.90
2022-10-04T04:59:57.210Z,5.07
2022-10-04T05:03:03.800Z,6.43
2022-10-04T05:06:23.390Z,15.10
2022-10-04T05:09:29.910Z,9.10
2022-10-04T05:12:32.703Z,8.70
2022-10-04T05:15:38.086Z,13.77
2022-10-04T05:18:42.428Z,6.87
2022-10-04T05:21:47.948Z,13.67
2022-10-04T05:24:54.682Z,11.77
2022-10-04T05:27:58.224Z,11.33
2022-10-04T05:31:33.380Z,12.23
2022-10-04T05:34:41.244Z,16.63
2022-10-04T05:37:58.263Z,18.60
2022-10-04T05:41:07.681Z,10.93
2022-10-04T05:44:27.143Z,16.50
2022-10-04T05:47:32.199Z,6.50
2022-10-04T05:50:40.644Z,6.70
2022-10-04T05:53:44.714Z,10.60
2022-10-04T05:57:05.105Z,11.60
2022-10-04T06:00:17.479Z,8.10
2022-10-04T06:03:42.238Z,14.20
2022-10-04T06:06:51.485Z,12.27
2022-10-04T06:10:36.522Z,12.70
2022-10-04T06:13:59.940Z,13.80
2022-10-04T06:17:35.715Z,12.27
2022-10-04T06:20:56.614Z,13.90
2022-10-04T06:24:10.455Z,12.23
2022-10-04T06:27:17.086Z,10.87
2022-10-04T06:30:21.464Z,10.23
2022-10-04T06:33:41.905Z,8.73
2022-10-04T06:37:02.819Z,14.90
2022-10-04T06:40:29.485Z,12.27
2022-10-04T06:43:47.371Z,11.23
2022-10-04T06:46:53.519Z,8.33
2022-10-04T06:50:05.813Z,16.20
2022-10-04T06:53:21.194Z,10.97
2022-10-04T06:56:44.199Z,11.40
2022-10-04T07:00:04.481Z,9.83
2022-10-04T07:03:15.260Z,9.10
2022-10-04T07:06:27.004Z,9.17
2022-10-04T07:09:30.673Z,9.27
2022-10-04T07:12:39.868Z,12.30
2022-10-04T07:15:50.111Z,13.03
2022-10-04T07:19:08.388Z,9.37
2022-10-04T07:22:18.479Z,7.60
2022-10-04T07:25:25.155Z,8.23
2022-10-04T07:28:52.025Z,12.03
2022-10-04T07:32:08.304Z,10.60
2022-10-04T07:35:22.109Z,10.47
2022-10-04T07:38:28.375Z,11.67
2022-10-04T07:41:36.598Z,10.33
2022-10-04T07:44:43.942Z,11.20
2022-10-04T07:47:47.491Z,8.63
2022-10-04T07:51:00.204Z,9.90
2022-10-04T07:54:12.451Z,9.63
2022-10-04T07:57:23.766Z,9.10
2022-10-04T08:00:35.576Z,9.43
2022-10-04T08:03:49.130Z,13.43
2022-10-04T08:06:59.226Z,8.27
2022-10-04T08:10:07.845Z,10.77
2022-10-04T08:13:23.341Z,9.07
2022-10-04T08:16:36.870Z,5.27
2022-10-04T08:19:48.851Z,8.50
2022-10-04T08:23:03.092Z,8.33
2022-10-04T08:26:20.187Z,6.60
2022-10-04T08:29:43.586Z,7.03
2022-10-04T08:33:06.396Z,7.33
2022-10-04T08:36:22.540Z,8.43
2022-10-04T08:39:41.881Z,6.87
2022-10-04T08:43:21.001Z,6.03
2022-10-04T08:47:09.229Z,9.53
2022-10-04T08:50:44.482Z,9.40
2022-10-04T08:54:20.220Z,11.33
2022-10-04T08:57:45.940Z,8.47
2022-10-04T09:01:01.101Z,7.07
2022-10-04T09:04:45.678Z,8.90
2022-10-04T09:08:04.602Z,6.70
2022-10-04T09:11:32.368Z,7.97
2022-10-04T09:14:52.308Z,9.77
2022-10-04T09:18:02.899Z,4.50
2022-10-04T09:21:11.793Z,11.40
2022-10-04T09:24:39.500Z,8.40
2022-10-04T09:28:15.433Z,6.57
2022-10-04T09:31:44.583Z,8.50
2022-10-04T09:35:06.601Z,10.97
2022-10-04T09:38:29.792Z,7.40
2022-10-04T09:41:45.108Z,10.23
2022-10-04T09:45:15.750Z,7.90
2022-10-04T09:48:29.039Z,7.23
2022-10-04T09:52:02.866Z,7.57
2022-10-04T09:55:29.728Z,10.97
2022-10-04T09:59:08.679Z,9.73
2022-10-04T10:02:43.826Z,6.77
2022-10-04T10:05:57.567Z,7.93
2022-10-04T10:09:16.163Z,11.93
2022-10-04T10:13:09.615Z,6.13
2022-10-04T10:16:30.064Z,6.40
2022-10-04T10:20:04.654Z,3.60
2022-10-04T10:23:30.763Z,6.90
2022-10-04T10:27:07.255Z,9.90
2022-10-04T10:30:24.400Z,9.30
2022-10-04T10:33:42.946Z,6.27
2022-10-04T10:37:09.086Z,10.70
2022-10-04T10:40:33.385Z,8.70
2022-10-04T10:43:52.132Z,9.50
2022-10-04T10:47:06.369Z,13.63
2022-10-04T10:50:28.182Z,6.93
2022-10-04T10:53:54.003Z,7.20
2022-10-04T10:57:06.887Z,5.37
2022-10-04T11:00:23.367Z,9.10
2022-10-04T11:03:54.770Z,10.63
2022-10-04T11:07:38.251Z,8.43
2022-10-04T11:11:11.379Z,8.23
2022-10-04T11:14:47.628Z,7.70
2022-10-04T11:18:28.982Z,9.23
2022-10-04T11:22:17.394Z,15.47
2022-10-04T11:26:03.061Z,7.57
2022-10-04T11:29:20.468Z,11.10
2022-10-04T11:32:46.385Z,8.30
2022-10-04T11:36:28.106Z,12.43
2022-10-04T11:39:58.526Z,6.27
2022-10-04T11:43:24.285Z,7.70
2022-10-04T11:46:38.202Z,6.07
2022-10-04T11:50:15.601Z,8.00
2022-10-04T11:53:40.548Z,7.07
2022-10-04T11:57:06.093Z,11.77
2022-10-04T12:00:16.293Z,7.40
2022-10-04T12:03:56.545Z,7.00
2022-10-04T12:07:34.197Z,6.80
2022-10-04T12:10:39.446Z,8.77
2022-10-04T12:13:59.539Z,10.50
2022-10-04T12:17:46.439Z,7.20
2022-10-04T12:21:22.070Z,15.17
2022-10-04T12:24:48.402Z,7.50
2022-10-04T12:28:18.534Z,10.77
2022-10-04T12:31:27.322Z,9.03
2022-10-04T12:34:41.427Z,8.87
2022-10-04T12:38:08.297Z,14.40
2022-10-04T12:41:22.986Z,8.20
2022-10-04T12:44:42.033Z,6.97
2022-10-04T12:48:11.022Z,6.90
2022-10-04T12:51:28.843Z,9.23
2022-10-04T12:54:39.972Z,5.63
2022-10-04T12:57:51.346Z,5.37
2022-10-04T13:01:02.246Z,10.60
2022-10-04T13:04:20.501Z,5.73
2022-10-04T13:07:45.065Z,4.47
2022-10-04T13:11:07.314Z,6.03
2022-10-04T13:14:39.760Z,9.93
2022-10-04T13:17:50.497Z,5.83
2022-10-04T13:21:03.127Z,5.73
2022-10-04T13:24:19.058Z,8.83
2022-10-04T13:27:30.650Z,4.80
2022-10-04T13:30:39.488Z,4.10
2022-10-04T13:33:52.299Z,7.33
2022-10-04T13:37:07.105Z,5.70
2022-10-04T13:40:32.565Z,7.23
2022-10-04T13:43:56.915Z,7.43
2022-10-04T13:47:21.598Z,5.40
2022-10-04T13:50:39.212Z,4.73
2022-10-04T13:54:10.542Z,5.20
2022-10-04T13:57:22.560Z,6.93
2022-10-04T14:00:43.571Z,8.10
2022-10-04T14:04:00.731Z,5.17
2022-10-04T14:07:31.090Z,4.60
2022-10-04T14:11:02.655Z,5.80
2022-10-04T14:14:33.727Z,5.77
2022-10-04T14:18:04.372Z,4.53
2022-10-04T14:21:55.298Z,5.87
2022-10-04T14:25:40.230Z,7.83
2022-10-04T14:29:34.419Z,4.60
2022-10-04T14:33:07.238Z,6.07
2022-10-04T14:36:36.434Z,6.23
2022-10-04T14:40:06.252Z,4.90
2022-10-04T14:43:35.219Z,4.00
2022-10-04T14:46:52.085Z,5.37
2022-10-04T14:50:19.199Z,3.40
2022-10-04T14:53:28.308Z,4.93
2022-10-04T14:56:44.513Z,2.97
2022-10-04T15:00:08.707Z,7.83
2022-10-04T15:03:30.115Z,6.53
2022-10-04T15:06:49.158Z,6.17
2022-10-04T15:09:57.950Z,4.73
2022-10-04T15:13:12.292Z,8.13
2022-10-04T15:16:23.183Z,6.07
2022-10-04T15:19:30.714Z,5.87
2022-10-04T15:22:44.437Z,2.67
2022-10-04T15:25:52.132Z,4.80
2022-10-04T15:29:07.187Z,4.97
2022-10-04T15:32:25.874Z,4.37
2022-10-04T15:35:40.807Z,4.87
2022-10-04T15:38:53.793Z,6.20
2022-10-04T15:42:03.893Z,4.73
2022-10-04T15:45:38.228Z,9.13
2022-10-04T15:48:51.598Z,4.73
2022-10-04T15:52:16.131Z,7.60
2022-10-04T15:55:25.734Z,6.70
2022-10-04T15:59:07.140Z,9.27
2022-10-04T16:02:35.740Z,7.60
2022-10-04T16:05:45.767Z,6.47
2022-10-04T16:09:03.733Z,8.60
2022-10-04T16:12:20.559Z,5.07
2022-10-04T16:15:33.293Z,6.20
2022-10-04T16:18:47.291Z,3.90
2022-10-04T16:21:53.833Z,4.60
2022-10-04T16:25:00.059Z,8.70
2022-10-04T16:28:14.014Z,4.13
2022-10-04T16:31:24.747Z,4.97
2022-10-04T16:34:48.465Z,6.33
2022-10-04T16:37:58.387Z,6.37
2022-10-04T16:41:12.361Z,6.77
2022-10-04T16:44:40.636Z,4.73
2022-10-04T16:47:56.525Z,6.00
2022-10-04T16:51:33.948Z,9.57
2022-10-04T16:55:04.580Z,7.40
2022-10-04T16:58:56.141Z,10.37
2022-10-04T17:02:24.441Z,12.53
2022-10-04T17:06:02.535Z,8.47
2022-10-04T17:09:17.962Z,8.13
2022-10-04T17:12:27.334Z,6.43
2022-10-04T17:15:49.438Z,9.33
2022-10-04T17:19:14.107Z,20.83
2022-10-04T17:22:28.933Z,14.93
2022-10-04T17:25:42.788Z,12.17
2022-10-04T17:28:56.200Z,17.67
2022-10-04T17:32:03.888Z,14.77
2022-10-04T17:35:24.014Z,15.03
2022-10-04T17:38:36.390Z,18.53
2022-10-04T17:41:56.319Z,8.70
2022-10-04T17:45:27.502Z,12.03
2022-10-04T17:48:50.109Z,8.97
2022-10-04T17:52:15.476Z,10.43
2022-10-04T17:55:22.005Z,11.23
2022-10-04T17:58:31.370Z,10.80
2022-10-04T18:01:38.677Z,13.80
2022-10-04T18:04:52.014Z,18.23
2022-10-04T18:08:00.970Z,16.03
2022-10-04T18:11:14.850Z,15.17
2022-10-04T18:14:43.068Z,10.57
2022-10-04T18:17:49.690Z,10.87
2022-10-04T18:21:20.992Z,14.37
2022-10-04T18:24:30.397Z,10.67
2022-10-04T18:27:33.576Z,14.90
2022-10-04T18:30:54.023Z,13.87
2022-10-04T18:33:58.877Z,14.87
2022-10-04T18:37:07.194Z,12.93
2022-10-04T18:40:17.452Z,15.47
2022-10-04T18:43:26.898Z,15.07
2022-10-04T18:46:39.884Z,25.73
2022-10-04T18:49:48.758Z,16.83
2022-10-04T18:53:03.303Z,21.47
2022-10-04T18:56:09.730Z,20.17
2022-10-04T18:59:38.736Z,16.70
2022-10-04T19:02:51.193Z,14.37
2022-10-04T19:06:02.299Z,14.40
2022-10-04T19:09:15.783Z,12.37
2022-10-04T19:12:24.184Z,15.90
2022-10-04T19:15:40.108Z,19.13
2022-10-04T19:18:50.651Z,23.67
2022-10-04T19:21:59.934Z,12.93
2022-10-04T19:25:19.733Z,13.70
2022-10-04T19:28:28.467Z,17.73
2022-10-04T19:31:40.392Z,15.17
2022-10-04T19:34:55.305Z,17.13
2022-10-04T19:38:08.470Z,16.97
2022-10-04T19:41:19.002Z,13.00
2022-10-04T19:44:36.900Z,13.87
2022-10-04T19:47:48.915Z,16.17
2022-10-04T19:50:59.691Z,32.87
2022-10-04T19:54:14.756Z,53.60
2022-10-04T19:57:24.633Z,44.83
2022-10-04T20:00:28.720Z,17.63
2022-10-04T20:03:31.505Z,14.37
2022-10-04T20:06:34.495Z,9.30
2022-10-04T20:09:52.235Z,13.20
2022-10-04T20:13:21.518Z,16.97
2022-10-04T20:16:57.485Z,16.27
2022-10-04T20:20:01.854Z,11.27
2022-10-04T20:23:04.575Z,12.70
2022-10-04T20:26:08.875Z,9.53
2022-10-04T20:29:11.838Z,9.93
2022-10-04T20:32:55.791Z,12.37
2022-10-04T20:36:01.702Z,10.60
2022-10-04T20:39:06.266Z,13.63
2022-10-04T20:42:20.202Z,11.83
2022-10-04T20:45:27.944Z,12.43
2022-10-04T20:48:33.051Z,10.97
2022-10-04T20:51:37.908Z,22.77
2022-10-04T20:54:40.831Z,19.57
2022-10-04T20:57:44.004Z,15.87
2022-10-04T21:00:52.779Z,13.80
2022-10-04T21:04:13.405Z,72.23
2022-10-04T21:07:21.288Z,124.33
2022-10-04T21:10:24.014Z,25.13
2022-10-04T21:13:55.006Z,15.23
2022-10-04T21:17:02.438Z,13.33
2022-10-04T21:20:06.907Z,16.40
2022-10-04T21:23:19.199Z,26.00
2022-10-04T21:26:23.465Z,24.60
2022-10-04T21:29:26.196Z,21.87
2022-10-04T21:32:34.631Z,15.47
2022-10-04T21:35:37.298Z,18.53
2022-10-04T21:38:42.070Z,18.17
2022-10-04T21:41:44.944Z,19.07
2022-10-04T21:44:48.219Z,19.40
2022-10-04T21:47:51.138Z,38.43
2022-10-04T21:50:55.191Z,47.73
2022-10-04T21:53:59.538Z,28.57
2022-10-04T21:57:02.639Z,18.47
2022-10-04T22:00:06.347Z,17.43
2022-10-04T22:03:09.418Z,18.70
2022-10-04T22:06:12.114Z,19.00
2022-10-04T22:09:16.198Z,20.57
2022-10-04T22:12:18.968Z,20.03
2022-10-04T22:15:23.896Z,13.90
2022-10-04T22:18:26.846Z,13.90
2022-10-04T22:21:29.855Z,11.90
2022-10-04T22:24:34.275Z,20.73
2022-10-04T22:27:36.950Z,19.37
2022-10-04T22:30:40.025Z,17.57
2022-10-04T22:33:45.097Z,15.57
2022-10-04T22:36:50.207Z,16.00
2022-10-04T22:39:54.666Z,20.13
2022-10-04T22:43:01.067Z,12.87
2022-10-04T22:46:04.046Z,19.03
2022-10-04T22:49:11.115Z,17.20
2022-10-04T22:52:16.944Z,15.27
2022-10-04T22:55:21.105Z,17.50
2022-10-04T22:58:24.477Z,16.43
2022-10-04T23:01:28.685Z,16.83
2022-10-04T23:04:31.452Z,22.23
2022-10-04T23:07:38.189Z,16.47
2022-10-04T23:10:42.933Z,13.93
2022-10-04T23:13:45.744Z,16.00
2022-10-04T23:16:48.863Z,13.07
2022-10-04T23:19:55.298Z,16.50
2022-10-04T23:23:00.695Z,16.70
2022-10-04T23:26:14.562Z,19.80
2022-10-04T23:29:19.832Z,16.50
2022-10-04T23:32:22.522Z,16.50
2022-10-04T23:35:27.464Z,15.27
2022-10-04T23:38:30.550Z,17.00
2022-10-04T23:41:34.695Z,18.40
2022-10-04T23:44:39.442Z,20.17
2022-10-04T23:47:42.328Z,15.97
2022-10-04T23:50:45.428Z,19.33
2022-10-04T23:53:50.737Z,12.67
2022-10-04T23:56:54.817Z,17.83
